Time;durP1;ratioP1;P1;durP2;ratioP2;P2;SDS_P1;SDS_P2;PMS_P1;PMS_P2;Temp;Humidity;BMP_temperature;BMP_pressure;BME280_temperature;BME280_humidity;BME280_pressure;Samples;Min_cycle;Max_cycle;Signal;HPM_P1;HPM_P2
2024/02/15 00:01:31;;;;;;;7.05;5.93;;;13.20;99.90;;;;;;5039451;28;20029;-37
2024/02/15 00:03:57;;;;;;;5.45;4.97;;;13.20;99.90;;;;;;5040302;28;20112;-36
2024/02/15 00:06:23;;;;;;;6.15;5.55;;;13.20;99.90;;;;;;5040082;28;20080;-35
2024/02/15 00:08:50;;;;;;;6.30;5.22;;;13.20;99.90;;;;;;5039190;28;20387;-35
2024/02/15 00:11:18;;;;;;;6.55;5.93;;;13.20;99.90;;;;;;5040094;28;20037;-35
2024/02/15 00:13:44;;;;;;;6.68;6.18;;;13.20;99.90;;;;;;5040396;28;20071;-37
2024/02/15 00:16:16;;;;;;;6.22;5.63;;;13.20;99.90;;;;;;5039155;28;20025;-33
2024/02/15 00:18:41;;;;;;;6.93;5.22;;;13.20;99.90;;;;;;5039056;28;20134;-36
2024/02/15 00:21:07;;;;;;;5.97;5.47;;;13.20;99.90;;;;;;5038563;28;20123;-33
2024/02/15 00:23:32;;;;;;;6.28;5.72;;;13.20;99.90;;;;;;5040129;28;20032;-35
2024/02/15 00:25:58;;;;;;;6.95;6.30;;;13.30;99.90;;;;;;5039828;28;20551;-35
2024/02/15 00:28:26;;;;;;;7.18;6.50;;;13.20;99.90;;;;;;5038757;28;20013;-34
2024/02/15 00:30:52;;;;;;;6.65;6.05;;;13.20;99.90;;;;;;5039827;28;20462;-34
2024/02/15 00:33:21;;;;;;;6.65;6.05;;;13.20;99.90;;;;;;5039279;28;20021;-34
2024/02/15 00:35:50;;;;;;;6.70;6.10;;;13.20;99.90;;;;;;5039474;28;20035;-37
2024/02/15 00:38:16;;;;;;;5.90;5.40;;;13.20;99.90;;;;;;5039139;28;20480;-31
2024/02/15 00:40:41;;;;;;;6.97;6.28;;;13.30;99.90;;;;;;5039548;28;20029;-32
2024/02/15 00:43:08;;;;;;;7.60;6.90;;;13.30;99.90;;;;;;5037939;28;20829;-34
2024/02/15 00:45:34;;;;;;;7.05;6.32;;;13.30;99.90;;;;;;5039738;28;20032;-35
2024/02/15 00:47:59;;;;;;;6.72;6.20;;;13.30;99.90;;;;;;5038987;28;20037;-36
2024/02/15 00:50:25;;;;;;;8.20;6.60;;;13.30;99.90;;;;;;5037806;28;20387;-33
2024/02/15 00:52:50;;;;;;;7.82;7.07;;;13.30;99.90;;;;;;5039180;28;20075;-35
2024/02/15 00:55:16;;;;;;;7.05;6.35;;;13.30;99.90;;;;;;5038222;28;20033;-35
2024/02/15 00:57:42;;;;;;;8.18;7.20;;;13.30;99.90;;;;;;5038603;28;20033;-34
2024/02/15 01:00:11;;;;;;;7.22;6.63;;;13.30;99.90;;;;;;5038999;28;20029;-39
2024/02/15 01:02:37;;;;;;;7.53;6.90;;;13.30;99.90;;;;;;5038526;28;20040;-34
2024/02/15 01:05:02;;;;;;;9.18;8.00;;;13.30;99.90;;;;;;5038140;28;20028;-38
2024/02/15 01:07:28;;;;;;;8.95;8.13;;;13.30;99.90;;;;;;5038869;28;20032;-36
2024/02/15 01:09:54;;;;;;;7.75;7.05;;;13.30;99.90;;;;;;5038647;28;20041;-37
2024/02/15 01:12:21;;;;;;;7.85;7.15;;;13.30;99.90;;;;;;5038717;28;20110;-35
2024/02/15 01:14:47;;;;;;;7.72;6.90;;;13.30;99.90;;;;;;5042379;28;20017;-36
2024/02/15 01:17:13;;;;;;;7.78;7.07;;;13.30;99.90;;;;;;5042773;28;20125;-34
2024/02/15 01:19:39;;;;;;;7.97;7.28;;;13.30;99.90;;;;;;5041781;28;20021;-38
2024/02/15 01:22:06;;;;;;;8.30;7.50;;;13.30;99.90;;;;;;5043019;28;20127;-37
2024/02/15 01:24:32;;;;;;;7.65;6.95;;;13.30;99.90;;;;;;5042504;28;20033;-35
2024/02/15 01:26:58;;;;;;;7.50;6.80;;;13.40;99.90;;;;;;5042429;28;20013;-34
2024/02/15 01:29:25;;;;;;;7.80;7.05;;;13.40;99.90;;;;;;5042417;28;20090;-36
2024/02/15 01:31:51;;;;;;;7.35;6.65;;;13.40;99.90;;;;;;5042104;28;20068;-33
2024/02/15 01:34:17;;;;;;;7.55;6.90;;;13.40;99.90;;;;;;5042668;28;20449;-37
2024/02/15 01:36:42;;;;;;;6.75;6.15;;;13.40;99.90;;;;;;5042442;28;20040;-33
2024/02/15 01:39:11;;;;;;;7.47;6.68;;;13.40;99.90;;;;;;5042407;28;20037;-35
2024/02/15 01:41:36;;;;;;;6.72;6.03;;;13.40;99.90;;;;;;5042384;28;20037;-33
2024/02/15 01:44:02;;;;;;;6.45;5.57;;;13.40;99.90;;;;;;5042122;28;20814;-33
2024/02/15 01:46:29;;;;;;;6.50;5.57;;;13.40;99.90;;;;;;5041578;28;20757;-34
2024/02/15 01:48:56;;;;;;;6.25;5.65;;;13.40;99.90;;;;;;5042100;28;20032;-36
2024/02/15 01:51:23;;;;;;;7.15;6.40;;;13.40;99.90;;;;;;5041787;28;20104;-36
2024/02/15 01:53:48;;;;;;;6.35;5.75;;;13.40;99.90;;;;;;5041847;28;20021;-37
2024/02/15 01:56:16;;;;;;;5.85;5.35;;;13.40;99.90;;;;;;5041848;28;20035;-37
2024/02/15 01:58:42;;;;;;;6.18;5.57;;;13.40;99.90;;;;;;5041637;28;20068;-36
2024/02/15 02:01:08;;;;;;;5.40;4.90;;;13.40;99.90;;;;;;5041142;28;20027;-36
2024/02/15 02:03:35;;;;;;;5.53;5.03;;;13.40;99.90;;;;;;5041897;28;20850;-37
2024/02/15 02:06:00;;;;;;;6.72;5.43;;;13.40;99.90;;;;;;5041822;28;20028;-35
2024/02/15 02:08:26;;;;;;;5.90;5.30;;;13.40;99.90;;;;;;5040823;28;20037;-35
2024/02/15 02:10:52;;;;;;;6.00;5.40;;;13.40;99.90;;;;;;5040529;28;20777;-33
2024/02/15 02:13:18;;;;;;;5.18;4.68;;;13.40;99.90;;;;;;5039202;28;20055;-37
2024/02/15 02:15:44;;;;;;;5.20;4.70;;;13.40;99.90;;;;;;5040272;28;20570;-33
2024/02/15 02:18:10;;;;;;;5.55;4.65;;;13.40;99.90;;;;;;5040989;28;20060;-34
2024/02/15 02:20:36;;;;;;;5.13;4.63;;;13.30;99.90;;;;;;5040602;28;20355;-36
2024/02/15 02:23:13;;;;;;;4.72;4.32;;;13.40;99.90;;;;;;5039556;28;20787;-36
2024/02/15 02:25:38;;;;;;;5.45;4.43;;;13.40;99.90;;;;;;5020558;28;20602;-37
2024/02/15 02:28:06;;;;;;;4.82;4.43;;;13.30;99.90;;;;;;5034568;28;20020;-34
2024/02/15 02:30:32;;;;;;;6.45;4.35;;;13.40;99.90;;;;;;5040614;28;20029;-36
2024/02/15 02:32:58;;;;;;;5.20;4.70;;;13.40;99.90;;;;;;5039956;28;20534;-36
2024/02/15 02:35:24;;;;;;;5.60;5.00;;;13.40;99.90;;;;;;5039995;28;20090;-33
2024/02/15 02:37:52;;;;;;;5.57;5.07;;;13.40;99.90;;;;;;5040194;28;20050;-35
2024/02/15 02:40:19;;;;;;;5.50;4.93;;;13.30;99.90;;;;;;5040453;28;20540;-35
2024/02/15 02:42:51;;;;;;;5.30;4.80;;;13.40;99.90;;;;;;5039581;28;20075;-36
2024/02/15 02:45:19;;;;;;;;;;;13.40;99.90;;;;;;5039669;28;20025;-36
2024/02/15 02:47:46;;;;;;;6.13;4.15;;;13.40;99.90;;;;;;5040074;28;20688;-36
2024/02/15 02:50:13;;;;;;;5.28;4.10;;;13.40;99.90;;;;;;5039819;28;20021;-33
2024/02/15 02:52:39;;;;;;;5.25;4.45;;;13.30;99.90;;;;;;5040012;28;20028;-36
2024/02/15 02:55:08;;;;;;;5.85;4.72;;;13.30;99.90;;;;;;5039962;28;20024;-35
2024/02/15 02:57:37;;;;;;;5.25;4.38;;;13.30;99.90;;;;;;5039629;28;20488;-32
2024/02/15 03:00:16;;;;;;;7.85;4.50;;;13.30;99.90;;;;;;5037105;28;20051;-37
2024/02/15 03:02:43;;;;;;;4.53;4.13;;;13.30;99.90;;;;;;5040735;28;20077;-33
2024/02/15 03:05:10;;;;;;;5.25;3.83;;;13.30;99.90;;;;;;5039801;28;20028;-35
2024/02/15 03:07:36;;;;;;;5.65;4.35;;;13.30;99.90;;;;;;5040352;28;20029;-37
2024/02/15 03:10:08;;;;;;;5.32;4.47;;;13.30;99.90;;;;;;5001205;28;1083804;-36
2024/02/15 03:12:37;;;;;;;6.80;4.07;;;13.30;99.90;;;;;;5041409;28;20033;-36
2024/02/15 03:15:04;;;;;;;4.97;4.18;;;13.30;99.90;;;;;;5040670;28;20025;-36
2024/02/15 03:17:31;;;;;;;7.68;4.38;;;13.30;99.90;;;;;;5040139;28;20141;-34
2024/02/15 03:19:57;;;;;;;4.82;4.05;;;13.20;99.90;;;;;;5040119;28;20055;-33
2024/02/15 03:22:25;;;;;;;4.82;3.97;;;13.20;99.90;;;;;;5039892;28;20095;-35
2024/02/15 03:24:50;;;;;;;4.47;3.92;;;13.30;99.90;;;;;;5039914;28;20017;-33
2024/02/15 03:27:16;;;;;;;5.10;3.80;;;13.20;99.90;;;;;;5040398;28;20677;-37
2024/02/15 03:29:42;;;;;;;4.68;4.15;;;13.20;99.90;;;;;;5041131;28;20036;-37
2024/02/15 03:32:09;;;;;;;5.25;4.22;;;13.20;99.90;;;;;;5039404;28;20031;-34
2024/02/15 03:34:35;;;;;;;6.20;4.20;;;13.20;99.90;;;;;;5039798;28;20021;-37
2024/02/15 03:37:03;;;;;;;4.30;3.72;;;13.20;99.90;;;;;;5039594;28;20047;-34
2024/02/15 03:39:30;;;;;;;4.30;3.90;;;13.20;99.90;;;;;;5039587;28;20549;-36
2024/02/15 03:41:56;;;;;;;4.35;3.35;;;13.20;99.90;;;;;;5039720;28;20677;-37
2024/02/15 03:44:25;;;;;;;4.68;4.07;;;13.20;99.90;;;;;;5039534;28;20021;-37
2024/02/15 03:46:51;;;;;;;5.13;3.90;;;13.20;99.90;;;;;;5037752;28;20021;-34
2024/02/15 03:49:18;;;;;;;4.75;3.40;;;13.20;99.90;;;;;;5039028;28;20035;-35
2024/02/15 03:51:44;;;;;;;4.18;3.78;;;13.20;99.90;;;;;;5035650;28;20028;-35
2024/02/15 03:54:13;;;;;;;5.15;3.70;;;13.10;99.90;;;;;;5039264;28;20037;-37
2024/02/15 03:56:52;;;;;;;3.85;3.47;;;13.10;99.90;;;;;;5038612;28;20020;-37
2024/02/15 03:59:26;;;;;;;3.70;3.30;;;13.20;99.90;;;;;;5038895;28;20044;-34
2024/02/15 04:01:53;;;;;;;5.53;3.55;;;13.10;99.90;;;;;;5040138;28;20021;-36
2024/02/15 04:04:21;;;;;;;3.42;3.03;;;13.10;99.90;;;;;;5040131;28;20021;-34
2024/02/15 04:06:49;;;;;;;4.80;3.50;;;13.20;99.90;;;;;;5039632;28;20025;-33
2024/02/15 04:09:17;;;;;;;4.28;3.47;;;13.10;99.90;;;;;;5039756;28;20123;-36
2024/02/15 04:11:44;;;;;;;3.85;2.95;;;13.10;99.90;;;;;;5039531;28;20044;-37
2024/02/15 04:14:09;;;;;;;4.45;3.08;;;13.10;99.90;;;;;;5039257;28;20207;-34
2024/02/15 04:16:35;;;;;;;4.72;3.38;;;13.10;99.90;;;;;;5039950;28;20029;-35
2024/02/15 04:19:02;;;;;;;4.95;3.00;;;13.10;99.90;;;;;;5039312;28;20530;-34
2024/02/15 04:21:28;;;;;;;5.07;3.20;;;13.00;99.90;;;;;;5039294;28;20040;-31
2024/02/15 04:23:54;;;;;;;5.18;2.72;;;13.00;99.90;;;;;;5039580;28;20028;-35
2024/02/15 04:26:20;;;;;;;5.75;2.80;;;13.00;99.90;;;;;;5039347;28;20039;-36
2024/02/15 04:28:48;;;;;;;3.25;2.50;;;13.00;99.90;;;;;;5039132;28;20029;-33
2024/02/15 04:31:15;;;;;;;3.22;2.60;;;13.00;99.90;;;;;;5039243;28;20399;-33
2024/02/15 04:33:41;;;;;;;3.10;2.60;;;13.00;99.90;;;;;;5039137;28;20107;-34
2024/02/15 04:36:06;;;;;;;3.08;2.53;;;13.00;99.90;;;;;;5038543;28;20036;-35
2024/02/15 04:38:35;;;;;;;5.57;2.50;;;13.00;99.90;;;;;;5039424;28;20088;-36
2024/02/15 04:41:05;;;;;;;4.63;2.92;;;13.00;99.90;;;;;;5039648;28;20037;-37
2024/02/15 04:43:33;;;;;;;3.13;2.83;;;13.00;99.90;;;;;;5035500;28;20025;-34
2024/02/15 04:46:00;;;;;;;3.80;2.17;;;13.00;99.90;;;;;;5039093;28;20072;-35
2024/02/15 04:48:27;;;;;;;3.75;2.50;;;13.00;99.90;;;;;;5038250;28;20028;-35
2024/02/15 04:50:54;;;;;;;3.90;2.72;;;13.00;99.90;;;;;;5039167;28;20048;-35
2024/02/15 04:53:21;;;;;;;4.25;2.53;;;13.00;99.90;;;;;;5039421;28;20057;-34
2024/02/15 04:55:46;;;;;;;3.95;2.30;;;13.00;99.90;;;;;;5039454;28;20096;-37
2024/02/15 04:58:12;;;;;;;4.80;2.25;;;13.00;99.90;;;;;;5038917;28;20045;-33
2024/02/15 05:00:38;;;;;;;4.72;2.55;;;13.00;99.90;;;;;;5039582;28;20800;-34
2024/02/15 05:03:04;;;;;;;4.55;2.65;;;13.10;99.90;;;;;;5038096;28;20132;-36
2024/02/15 05:05:29;;;;;;;3.03;2.35;;;13.00;99.90;;;;;;5039028;28;20139;-37
2024/02/15 05:07:55;;;;;;;4.18;2.30;;;13.10;99.90;;;;;;5039400;28;20025;-36
2024/02/15 05:10:20;;;;;;;3.88;2.15;;;13.00;99.90;;;;;;5038685;28;20055;-37
2024/02/15 05:12:49;;;;;;;4.15;2.20;;;13.10;99.90;;;;;;5038774;28;20028;-34
2024/02/15 05:15:17;;;;;;;3.60;2.35;;;13.00;99.90;;;;;;5038826;28;20750;-36
2024/02/15 05:17:43;;;;;;;6.13;2.65;;;13.10;99.90;;;;;;5038652;28;20178;-37
2024/02/15 05:20:14;;;;;;;3.17;2.10;;;13.10;99.90;;;;;;5038973;28;20061;-37
2024/02/15 05:22:45;;;;;;;4.10;2.40;;;13.00;99.90;;;;;;5038612;28;20029;-34
2024/02/15 05:25:12;;;;;;;3.88;1.88;;;13.10;99.90;;;;;;5037575;28;20534;-37
2024/02/15 05:27:38;;;;;;;4.60;2.08;;;13.00;99.90;;;;;;5038972;28;20123;-36
2024/02/15 05:30:07;;;;;;;2.50;1.83;;;13.10;99.90;;;;;;5039343;28;20021;-37
2024/02/15 05:32:41;;;;;;;3.83;2.45;;;13.10;99.90;;;;;;5039402;28;20032;-36
2024/02/15 05:35:10;;;;;;;2.85;1.85;;;13.10;99.90;;;;;;5039443;28;20491;-41
2024/02/15 05:37:36;;;;;;;5.05;2.40;;;13.10;99.90;;;;;;5038396;28;20130;-37
2024/02/15 05:40:02;;;;;;;4.03;2.28;;;13.10;99.90;;;;;;5038962;28;20119;-34
2024/02/15 05:42:28;;;;;;;3.72;2.03;;;13.00;99.90;;;;;;5039282;28;20025;-36
2024/02/15 05:44:54;;;;;;;4.57;2.15;;;13.10;99.90;;;;;;5038517;28;20981;-36
2024/02/15 05:47:22;;;;;;;3.17;2.03;;;13.00;99.90;;;;;;5038737;28;20029;-36
2024/02/15 05:49:47;;;;;;;4.15;2.08;;;13.00;99.90;;;;;;5038881;28;20024;-33
2024/02/15 05:52:13;;;;;;;4.20;2.38;;;13.00;99.90;;;;;;5038039;28;20033;-37
2024/02/15 05:54:41;;;;;;;3.28;1.92;;;13.00;99.90;;;;;;5039567;28;20057;-34
2024/02/15 05:57:07;;;;;;;4.32;2.20;;;13.00;99.90;;;;;;5039035;28;20060;-34
2024/02/15 05:59:34;;;;;;;4.00;2.00;;;13.00;99.90;;;;;;5039941;28;20612;-36
2024/02/15 06:01:59;;;;;;;2.75;1.95;;;13.10;99.90;;;;;;5042834;28;20029;-38
2024/02/15 06:04:26;;;;;;;2.42;1.90;;;13.10;99.90;;;;;;5043220;28;20028;-34
2024/02/15 06:06:53;;;;;;;3.60;2.30;;;13.00;99.90;;;;;;5042185;28;20040;-37
2024/02/15 06:09:21;;;;;;;3.65;2.40;;;13.10;99.90;;;;;;5042273;28;20446;-35
2024/02/15 06:11:47;;;;;;;4.80;2.50;;;13.00;99.90;;;;;;5042872;28;20033;-37
2024/02/15 06:14:13;;;;;;;4.70;2.60;;;13.00;99.90;;;;;;5041146;28;20421;-36
2024/02/15 06:16:43;;;;;;;6.70;2.70;;;13.00;99.90;;;;;;5042901;28;20091;-37
2024/02/15 06:19:09;;;;;;;3.80;2.40;;;13.00;99.90;;;;;;5042094;28;20033;-36
2024/02/15 06:21:34;;;;;;;4.00;2.25;;;13.00;99.90;;;;;;5041540;28;20025;-37
2024/02/15 06:24:03;;;;;;;2.15;1.95;;;13.00;99.90;;;;;;5042185;28;20770;-34
2024/02/15 06:26:29;;;;;;;3.30;1.80;;;13.00;99.90;;;;;;5041677;28;20120;-37
2024/02/15 06:39:53;;;;;;;2.45;1.90;;;13.00;99.90;;;;;;5042663;28;20136;-35
2024/02/15 06:42:19;;;;;;;3.20;1.90;;;13.10;99.90;;;;;;5041447;28;20063;-38
2024/02/15 06:44:46;;;;;;;2.92;1.80;;;13.10;99.90;;;;;;5039739;28;20119;-34
2024/02/15 06:47:13;;;;;;;4.10;2.05;;;13.00;99.90;;;;;;5039751;28;20811;-33
2024/02/15 06:49:43;;;;;;;4.13;2.20;;;13.00;99.90;;;;;;5039960;28;20021;-36
2024/02/15 06:52:11;;;;;;;2.83;1.92;;;13.00;99.90;;;;;;5040723;28;20036;-38
2024/02/15 06:54:38;;;;;;;3.08;2.30;;;13.00;99.90;;;;;;5039535;28;20112;-36
2024/02/15 06:57:04;;;;;;;2.80;1.90;;;13.00;99.90;;;;;;5039954;28;20043;-35
2024/02/15 06:59:31;;;;;;;2.42;2.10;;;13.00;99.90;;;;;;5039700;28;20029;-36
2024/02/15 07:02:01;;;;;;;3.05;1.77;;;13.00;99.90;;;;;;5039056;28;20028;-36
2024/02/15 07:04:27;;;;;;;2.00;1.80;;;13.00;99.90;;;;;;5038887;28;20017;-36
2024/02/15 07:06:54;;;;;;;2.80;2.00;;;13.00;99.90;;;;;;5038901;28;20028;-36
2024/02/15 07:09:22;;;;;;;3.40;2.10;;;13.00;99.90;;;;;;5038021;28;20140;-36
2024/02/15 07:11:48;;;;;;;2.78;2.20;;;13.00;99.90;;;;;;5038172;28;20107;-39
2024/02/15 07:14:15;;;;;;;2.08;1.80;;;13.00;99.90;;;;;;5038961;28;20020;-35
2024/02/15 07:16:45;;;;;;;2.25;1.80;;;13.10;99.90;;;;;;5040341;28;20140;-35
2024/02/15 07:19:11;;;;;;;2.50;1.70;;;13.10;99.90;;;;;;5039838;28;20559;-35
2024/02/15 07:21:38;;;;;;;2.42;1.63;;;13.10;99.90;;;;;;5040087;28;20055;-34
2024/02/15 07:24:04;;;;;;;2.55;1.67;;;13.10;99.90;;;;;;5039025;28;20025;-38
2024/02/15 07:26:30;;;;;;;3.00;1.77;;;13.10;99.90;;;;;;5040605;28;20040;-33
2024/02/15 07:28:57;;;;;;;1.83;1.50;;;13.10;99.90;;;;;;5040387;28;20047;-36
2024/02/15 07:31:23;;;;;;;2.17;1.70;;;13.10;99.90;;;;;;5040665;28;20048;-37
2024/02/15 07:33:52;;;;;;;2.80;2.15;;;13.10;99.90;;;;;;5040791;28;20551;-34
2024/02/15 07:36:22;;;;;;;2.25;1.75;;;13.10;99.90;;;;;;5040648;28;20036;-37
2024/02/15 07:38:48;;;;;;;2.70;1.70;;;13.10;99.90;;;;;;5040481;28;20336;-32
2024/02/15 07:41:15;;;;;;;2.92;1.63;;;13.10;99.90;;;;;;5041196;28;20123;-35
2024/02/15 07:43:41;;;;;;;1.88;1.50;;;13.10;99.90;;;;;;5041348;28;20055;-35
2024/02/15 07:46:07;;;;;;;2.50;1.80;;;13.20;99.90;;;;;;5040464;28;20481;-37
2024/02/15 07:48:33;;;;;;;3.75;2.17;;;13.10;99.90;;;;;;5040748;28;20135;-37
2024/02/15 07:50:58;;;;;;;3.88;1.95;;;13.20;99.90;;;;;;5040343;28;20033;-36
2024/02/15 07:53:24;;;;;;;2.35;2.10;;;13.20;99.90;;;;;;5040249;28;20104;-37
2024/02/15 07:55:58;;;;;;;2.35;2.03;;;13.20;99.90;;;;;;5040534;28;20116;-37
2024/02/15 07:58:23;;;;;;;4.55;2.28;;;13.20;99.90;;;;;;5039180;28;20044;-37
2024/02/15 08:00:49;;;;;;;3.88;2.63;;;13.20;99.90;;;;;;5041275;28;20021;-38
2024/02/15 08:03:15;;;;;;;2.25;2.03;;;13.20;99.90;;;;;;5040107;28;20062;-38
2024/02/15 08:05:41;;;;;;;3.80;2.13;;;13.20;99.90;;;;;;5039998;28;20021;-37
2024/02/15 08:08:06;;;;;;;4.07;1.80;;;13.20;99.90;;;;;;5040187;28;20079;-38
2024/02/15 08:10:33;;;;;;;2.20;1.65;;;13.10;99.90;;;;;;5040673;28;20052;-36
2024/02/15 08:12:59;;;;;;;2.03;1.70;;;13.20;99.90;;;;;;5039342;28;20040;-37
2024/02/15 08:15:27;;;;;;;2.28;1.50;;;13.20;99.90;;;;;;5039048;28;20017;-37
2024/02/15 08:17:54;;;;;;;1.98;1.60;;;13.20;99.90;;;;;;5040170;28;20056;-32
2024/02/15 08:20:21;;;;;;;1.73;1.33;;;13.20;99.90;;;;;;5038531;28;20086;-35
2024/02/15 08:22:47;;;;;;;2.55;1.60;;;13.20;99.90;;;;;;5039665;28;20033;-37
2024/02/15 08:25:15;;;;;;;1.65;1.40;;;13.20;99.90;;;;;;5038941;28;20021;-37
2024/02/15 08:27:45;;;;;;;1.55;1.45;;;13.20;99.90;;;;;;5038756;28;20037;-37
2024/02/15 08:30:12;;;;;;;1.60;1.50;;;13.30;99.90;;;;;;5037679;28;20033;-38
2024/02/15 08:32:45;;;;;;;1.77;1.33;;;13.30;99.90;;;;;;5038586;28;20033;-35
2024/02/15 08:35:14;;;;;;;2.22;1.58;;;13.30;99.90;;;;;;5038449;28;20021;-37
2024/02/15 08:37:47;;;;;;;1.73;1.50;;;13.30;99.90;;;;;;5038922;28;20053;-34
2024/02/15 08:40:13;;;;;;;1.88;1.58;;;13.30;99.90;;;;;;5037671;28;20104;-35
2024/02/15 08:42:42;;;;;;;2.35;1.55;;;13.20;99.90;;;;;;5039291;28;20397;-36
2024/02/15 08:45:12;;;;;;;1.98;1.50;;;13.20;99.90;;;;;;5038347;28;20028;-40
2024/02/15 08:47:42;;;;;;;1.55;1.45;;;13.30;99.90;;;;;;5037132;28;20099;-38
2024/02/15 08:50:11;;;;;;;1.50;1.40;;;13.30;99.90;;;;;;5038575;28;20032;-38
2024/02/15 08:52:38;;;;;;;1.80;1.48;;;13.30;99.90;;;;;;5039044;28;20415;-38
2024/02/15 08:55:10;;;;;;;2.78;1.60;;;13.30;99.90;;;;;;5038425;28;20028;-36
2024/02/15 08:57:36;;;;;;;1.48;1.38;;;13.30;99.90;;;;;;5038898;28;20041;-36
2024/02/15 09:00:13;;;;;;;2.15;1.50;;;13.30;99.90;;;;;;5037991;28;20534;-37
2024/02/15 09:02:45;;;;;;;1.50;1.40;;;13.30;99.90;;;;;;5027346;28;20586;-37
2024/02/15 09:05:14;;;;;;;1.50;1.38;;;13.30;99.90;;;;;;5037133;28;20582;-35
2024/02/15 09:07:47;;;;;;;1.35;1.25;;;13.30;99.90;;;;;;5038157;28;20091;-34
2024/02/15 09:10:13;;;;;;;1.75;1.40;;;13.30;99.90;;;;;;5038240;28;20052;-35
2024/02/15 09:12:40;;;;;;;1.30;1.20;;;13.30;99.90;;;;;;5039082;28;20025;-36
2024/02/15 09:15:12;;;;;;;1.58;1.35;;;13.30;99.90;;;;;;5038310;28;20031;-37
2024/02/15 09:17:41;;;;;;;1.58;1.42;;;13.30;99.90;;;;;;5034459;28;20029;-37
2024/02/15 09:20:20;;;;;;;1.20;1.10;;;13.30;99.90;;;;;;5039567;28;20393;-36
2024/02/15 09:22:50;;;;;;;2.63;1.52;;;13.30;99.90;;;;;;5037493;28;20029;-35
2024/02/15 09:25:19;;;;;;;1.60;1.50;;;13.30;99.90;;;;;;5038822;28;20035;-34
2024/02/15 09:27:48;;;;;;;2.10;1.50;;;13.30;99.90;;;;;;5039226;28;20025;-36
2024/02/15 09:30:14;;;;;;;1.88;1.45;;;13.30;99.90;;;;;;5038423;28;20108;-34
2024/02/15 09:32:39;;;;;;;1.83;1.60;;;13.30;99.90;;;;;;5038917;28;20037;-37
2024/02/15 09:35:09;;;;;;;1.98;1.58;;;13.30;99.90;;;;;;5041435;28;20108;-35
2024/02/15 09:37:43;;;;;;;1.58;1.30;;;13.30;99.90;;;;;;5042114;28;20183;-36
2024/02/15 09:40:11;;;;;;;1.42;1.30;;;13.30;99.90;;;;;;5023156;28;20071;-36
2024/02/15 09:42:38;;;;;;;3.10;1.38;;;13.30;99.90;;;;;;5038021;28;20144;-37
2024/02/15 09:45:11;;;;;;;2.38;1.90;;;13.30;99.90;;;;;;5042543;28;20099;-36
2024/02/15 09:47:37;;;;;;;3.05;2.20;;;13.30;99.90;;;;;;5042435;28;20036;-35
2024/02/15 09:50:13;;;;;;;2.33;1.73;;;13.30;99.90;;;;;;5042180;28;20146;-35
2024/02/15 09:52:54;;;;;;;2.30;1.77;;;13.30;99.90;;;;;;5041562;28;20032;-35
2024/02/15 09:55:22;;;;;;;1.83;1.50;;;13.40;99.90;;;;;;5042468;28;20025;-35
2024/02/15 09:57:49;;;;;;;1.65;1.30;;;13.30;99.90;;;;;;5042620;28;20036;-38
2024/02/15 10:00:16;;;;;;;1.33;1.23;;;13.30;99.90;;;;;;5042829;28;20013;-37
2024/02/15 10:02:46;;;;;;;4.50;1.35;;;13.40;99.90;;;;;;5042650;28;20052;-34
2024/02/15 10:05:15;;;;;;;2.75;1.58;;;13.40;99.90;;;;;;5041802;28;20057;-38
2024/02/15 10:07:44;;;;;;;2.03;1.70;;;13.40;99.90;;;;;;5043270;28;20052;-37
2024/02/15 10:10:16;;;;;;;1.55;1.40;;;13.40;99.90;;;;;;5042589;28;20056;-38
2024/02/15 10:12:43;;;;;;;3.65;1.77;;;13.30;99.90;;;;;;5042354;28;20033;-37
2024/02/15 10:15:09;;;;;;;3.30;1.80;;;13.30;99.90;;;;;;5042638;28;20036;-36
2024/02/15 10:17:36;;;;;;;2.15;1.80;;;13.30;99.90;;;;;;5041991;28;20033;-37
2024/02/15 10:20:06;;;;;;;2.33;1.80;;;13.30;99.90;;;;;;5041550;28;20025;-36
2024/02/15 10:22:32;;;;;;;1.95;1.30;;;13.30;99.90;;;;;;5041929;28;20057;-35
2024/02/15 10:25:11;;;;;;;1.55;1.25;;;13.30;99.90;;;;;;5042487;28;20409;-33
2024/02/15 10:27:38;;;;;;;2.58;1.40;;;13.30;99.90;;;;;;5041540;28;20074;-33
2024/02/15 10:30:20;;;;;;;1.70;1.30;;;13.40;99.90;;;;;;5042237;28;20024;-33
2024/02/15 10:32:48;;;;;;;2.10;1.48;;;13.40;99.90;;;;;;5042243;28;20029;-36
2024/02/15 10:35:21;;;;;;;2.90;1.70;;;13.50;99.90;;;;;;5037763;28;20114;-35
2024/02/15 10:37:49;;;;;;;2.17;1.58;;;13.50;99.90;;;;;;5041712;28;20033;-33
2024/02/15 10:40:18;;;;;;;2.40;1.60;;;13.50;99.90;;;;;;5039664;28;20029;-37
2024/02/15 10:42:49;;;;;;;3.92;1.58;;;13.50;99.90;;;;;;5041974;28;20029;-36
2024/02/15 10:45:17;;;;;;;1.77;1.45;;;13.60;99.90;;;;;;5040944;28;20056;-32
2024/02/15 10:47:49;;;;;;;3.55;1.60;;;13.60;99.90;;;;;;5041254;28;20037;-34
2024/02/15 10:50:18;;;;;;;2.33;1.42;;;13.60;99.90;;;;;;5040011;28;20327;-33
2024/02/15 10:52:57;;;;;;;2.60;1.40;;;13.60;99.90;;;;;;5040214;28;20482;-36
2024/02/15 10:55:35;;;;;;;1.77;1.52;;;13.60;99.90;;;;;;5038758;28;20025;-32
2024/02/15 10:58:04;;;;;;;2.72;2.10;;;13.60;99.90;;;;;;5040184;28;20055;-32
2024/02/15 11:00:33;;;;;;;2.80;2.17;;;13.60;99.90;;;;;;5039522;28;20112;-33
2024/02/15 11:03:07;;;;;;;3.10;1.92;;;13.60;99.90;;;;;;5039430;28;20066;-35
2024/02/15 11:05:34;;;;;;;4.45;1.70;;;13.70;99.90;;;;;;5041373;28;20028;-32
2024/02/15 11:08:03;;;;;;;3.95;1.60;;;13.60;99.90;;;;;;5041615;28;20459;-35
2024/02/15 11:10:30;;;;;;;2.30;1.60;;;13.70;99.90;;;;;;5040193;28;20037;-38
2024/02/15 11:12:58;;;;;;;2.20;1.40;;;13.70;99.90;;;;;;5040466;28;20078;-34
2024/02/15 11:15:36;;;;;;;1.85;1.73;;;13.80;99.90;;;;;;5039426;28;20024;-38
2024/02/15 11:18:03;;;;;;;2.15;1.40;;;13.80;99.90;;;;;;5040594;28;20044;-34
2024/02/15 11:20:35;;;;;;;1.42;1.33;;;13.90;99.90;;;;;;5041116;28;20027;-36
2024/02/15 11:23:03;;;;;;;2.30;1.40;;;13.90;99.90;;;;;;5039975;28;20037;-35
2024/02/15 11:25:38;;;;;;;2.25;1.45;;;14.00;99.90;;;;;;5040363;28;20056;-35
2024/02/15 11:28:27;;;;;;;1.95;1.40;;;14.00;99.90;;;;;;5040182;28;20021;-37
2024/02/15 11:30:56;;;;;;;2.22;1.23;;;14.00;99.90;;;;;;5039811;28;20584;-36
2024/02/15 11:33:35;;;;;;;1.67;1.40;;;14.10;99.90;;;;;;5040460;28;20287;-33
2024/02/15 11:36:09;;;;;;;3.17;1.80;;;14.10;99.90;;;;;;5040470;28;20025;-35
2024/02/15 11:38:35;;;;;;;3.05;1.70;;;14.10;99.90;;;;;;5039762;28;20283;-37
2024/02/15 11:41:05;;;;;;;1.60;1.50;;;14.20;99.90;;;;;;5040380;28;20804;-38
2024/02/15 11:43:43;;;;;;;2.42;1.60;;;14.20;99.90;;;;;;5039603;28;20029;-37
2024/02/15 11:46:16;;;;;;;2.22;1.60;;;14.20;99.90;;;;;;5040480;28;20521;-36
2024/02/15 11:48:42;;;;;;;2.00;1.60;;;14.20;99.90;;;;;;5040851;28;20177;-36
2024/02/15 11:51:11;;;;;;;2.47;1.60;;;14.20;99.90;;;;;;5039518;28;20059;-36
2024/02/15 11:53:39;;;;;;;1.42;1.30;;;14.20;99.90;;;;;;5040590;28;20021;-36
2024/02/15 11:56:05;;;;;;;1.67;1.40;;;14.30;99.90;;;;;;5040009;28;20455;-35
2024/02/15 11:58:52;;;;;;;1.58;1.30;;;14.30;99.90;;;;;;5039489;28;20626;-37
2024/02/15 12:20:31;;;;;;;2.55;1.60;;;14.90;99.90;;;;;;5027082;28;20559;-35
2024/02/15 12:23:00;;;;;;;1.52;1.20;;;15.00;99.90;;;;;;5034714;28;20021;-36
2024/02/15 12:25:26;;;;;;;2.22;1.70;;;15.00;99.90;;;;;;5039437;28;20025;-35
2024/02/15 12:27:54;;;;;;;1.85;1.73;;;15.10;99.90;;;;;;5038787;28;20079;-35
2024/02/15 12:30:21;;;;;;;2.05;1.65;;;15.10;99.90;;;;;;5038906;28;20683;-35
2024/02/15 12:32:47;;;;;;;1.95;1.30;;;15.20;99.90;;;;;;5039169;28;20032;-37
2024/02/15 12:35:19;;;;;;;2.67;1.50;;;15.20;99.90;;;;;;5039598;28;20025;-39
2024/02/15 12:38:08;;;;;;;1.85;1.70;;;15.30;99.90;;;;;;5040240;28;20040;-34
2024/02/15 12:40:36;;;;;;;2.72;1.80;;;15.30;99.90;;;;;;5038987;28;20052;-35
2024/02/15 12:43:06;;;;;;;3.70;2.03;;;15.30;99.90;;;;;;5038546;28;20025;-34
2024/02/15 12:45:36;;;;;;;1.70;1.50;;;15.40;99.90;;;;;;5039009;28;20548;-36
2024/02/15 12:48:06;;;;;;;2.58;1.80;;;15.40;99.90;;;;;;5039056;28;20542;-37
2024/02/15 12:50:34;;;;;;;1.55;1.45;;;15.50;99.90;;;;;;5038970;28;20459;-35
2024/02/15 12:53:03;;;;;;;3.35;1.70;;;15.50;99.90;;;;;;5039325;28;20151;-38
2024/02/15 12:55:36;;;;;;;2.35;1.48;;;15.60;99.90;;;;;;5037356;28;20025;-38
2024/02/15 12:58:03;;;;;;;3.17;1.88;;;15.60;99.90;;;;;;5039486;28;20120;-35
2024/02/15 13:00:32;;;;;;;5.22;1.98;;;15.70;99.90;;;;;;5028276;28;20029;-34
2024/02/15 13:02:59;;;;;;;2.08;1.55;;;15.70;99.90;;;;;;5038750;28;20810;-35
2024/02/15 13:05:26;;;;;;;2.90;1.40;;;15.70;99.90;;;;;;5038694;28;20112;-34
2024/02/15 13:07:57;;;;;;;2.42;1.50;;;15.80;99.90;;;;;;5038224;28;20033;-36
2024/02/15 13:10:23;;;;;;;2.03;1.45;;;15.70;99.90;;;;;;5039447;28;20057;-36
2024/02/15 13:12:55;;;;;;;2.42;1.70;;;15.70;99.90;;;;;;5044055;28;20055;-36
2024/02/15 13:15:21;;;;;;;1.40;1.15;;;15.80;99.90;;;;;;5041841;28;20031;-36
2024/02/15 13:17:51;;;;;;;2.30;1.40;;;15.80;99.90;;;;;;5043192;28;20037;-37
2024/02/15 13:20:20;;;;;;;3.38;1.80;;;15.80;99.90;;;;;;5042605;28;20025;-36
2024/02/15 13:22:49;;;;;;;3.50;1.90;;;15.80;99.90;;;;;;5041883;28;20441;-35